Back to Top

Language: 

My Weather Underground Personal Weather Station Historical Data with Graphs...

Delerius Weather Station Historical Data
Daily Summary for April 7, 2017 Units:  Metric    English   Both
« Previous Day
Next Day »
Daily Weekly Monthly Yearly Custom
  High: Low: Average:
Temperature: 14.3 °C 3.4 °C 9.2 °C
Dew Point: 6.1 °C 1.6 °C 4.9 °C
Humidity: 92 % 55 % 76 %
Wind Speed: 12.9 km/h 0 km/h 6.1 km/h
Wind Gust: 32.2 km/h - -
Wind:- - WNW
Pressure: 1028.3 hPa 1024.6 hPa -
Precipitation: 0 mm    
Historical Graphs
 
 
Tabular Data for April 7, 2017
Time Temperature Dew Point Pressure Wind Wind Speed Wind Gust Humidity Rainfall Rate (Hourly) solar Conditions
00:00 6.3 °C 4.1 °C 1028.3 hPa WNW 3.2 km/h 8 km/h 86 % 0 mm 0 W/m2
00:05 6.2 °C 4.2 °C 1028.3 hPa WNW 3.2 km/h 9.7 km/h 87 % 0 mm 0 W/m2
00:10 6.2 °C 4.2 °C 1028.3 hPa WNW 4.8 km/h 11.3 km/h 87 % 0 mm 0 W/m2
00:15 6.3 °C 4.4 °C 1028.3 hPa WNW 4.8 km/h 11.3 km/h 88 % 0 mm 0 W/m2
00:20 6.3 °C 4.4 °C 1028.3 hPa WNW 4.8 km/h 9.7 km/h 88 % 0 mm 0 W/m2
00:25 6.3 °C 4.4 °C 1028.3 hPa WNW 6.4 km/h 12.9 km/h 88 % 0 mm 0 W/m2
00:30 6.3 °C 4.4 °C 1028.3 hPa WNW 4.8 km/h 12.9 km/h 88 % 0 mm 0 W/m2
00:35 6.3 °C 4.4 °C 1028 hPa WNW 4.8 km/h 9.7 km/h 88 % 0 mm 0 W/m2
00:40 6.3 °C 4.4 °C 1028 hPa WNW 6.4 km/h 11.3 km/h 88 % 0 mm 0 W/m2
00:45 6.3 °C 4.4 °C 1028 hPa WNW 6.4 km/h 11.3 km/h 88 % 0 mm 0 W/m2
00:50 6.3 °C 4.4 °C 1028 hPa WNW 6.4 km/h 14.5 km/h 88 % 0 mm 0 W/m2
00:55 6.3 °C 4.6 °C 1028 hPa WNW 6.4 km/h 14.5 km/h 89 % 0 mm 0 W/m2
01:00 6.4 °C 4.7 °C 1028 hPa WNW 6.4 km/h 11.3 km/h 89 % 0 mm 0 W/m2
01:05 6.4 °C 4.7 °C 1028 hPa WNW 6.4 km/h 11.3 km/h 89 % 0 mm 0 W/m2
01:10 6.4 °C 4.7 °C 1028 hPa WNW 6.4 km/h 12.9 km/h 89 % 0 mm 0 W/m2
01:15 6.4 °C 4.7 °C 1028 hPa WNW 6.4 km/h 12.9 km/h 89 % 0 mm 0 W/m2
01:20 6.4 °C 4.7 °C 1027.7 hPa WNW 4.8 km/h 9.7 km/h 89 % 0 mm 0 W/m2
01:22 6.4 °C 4.7 °C 1027.7 hPa WNW 4.8 km/h 9.7 km/h 89 % 0 mm 0 W/m2
01:27 6.3 °C 4.6 °C 1027.7 hPa WNW 4.8 km/h 9.7 km/h 89 % 0 mm 0 W/m2
01:32 6.3 °C 4.6 °C 1027.7 hPa WNW 4.8 km/h 9.7 km/h 89 % 0 mm 0 W/m2
01:37 6.2 °C 4.5 °C 1027.7 hPa WNW 3.2 km/h 8 km/h 89 % 0 mm 0 W/m2
01:42 6.2 °C 4.5 °C 1027.7 hPa WNW 3.2 km/h 6.4 km/h 89 % 0 mm 0 W/m2
01:47 6.1 °C 4.4 °C 1027.7 hPa WNW 3.2 km/h 6.4 km/h 89 % 0 mm 0 W/m2
01:52 5.9 °C 4.2 °C 1027.7 hPa WNW 3.2 km/h 6.4 km/h 89 % 0 mm 0 W/m2
01:57 5.9 °C 4.2 °C 1027.7 hPa WNW 1.6 km/h 6.4 km/h 89 % 0 mm 0 W/m2
02:02 5.9 °C 4.4 °C 1027.3 hPa WNW 1.6 km/h 3.2 km/h 90 % 0 mm 0 W/m2
02:07 5.9 °C 4.4 °C 1027.3 hPa Calm   3.2 km/h 90 % 0 mm 0 W/m2
02:12 5.9 °C 4.4 °C 1027.3 hPa Calm   1.6 km/h 90 % 0 mm 0 W/m2
02:17 5.9 °C 4.6 °C 1027.3 hPa Calm   1.6 km/h 91 % 0 mm 0 W/m2
02:22 5.8 °C 4.4 °C 1027.3 hPa Calm   9.7 km/h 91 % 0 mm 0 W/m2
02:27 5.9 °C 4.6 °C 1027.3 hPa West 1.6 km/h 9.7 km/h 91 % 0 mm 0 W/m2
02:32 5.9 °C 4.6 °C 1027 hPa West 3.2 km/h 8 km/h 91 % 0 mm 0 W/m2
02:43 6.2 °C 5 °C 1027 hPa WNW 6.4 km/h 12.9 km/h 92 % 0 mm 0 W/m2
02:48 6.3 °C 5.1 °C 1027 hPa WNW 8 km/h 12.9 km/h 92 % 0 mm 0 W/m2
02:53 6.4 °C 5.2 °C 1027.3 hPa WNW 8 km/h 14.5 km/h 92 % 0 mm 0 W/m2
02:58 6.6 °C 5.4 °C 1027 hPa WNW 8 km/h 14.5 km/h 92 % 0 mm 0 W/m2
03:03 6.8 °C 5.6 °C 1027 hPa WNW 6.4 km/h 12.9 km/h 92 % 0 mm 0 W/m2
03:08 6.9 °C 5.7 °C 1027 hPa West 4.8 km/h 12.9 km/h 92 % 0 mm 0 W/m2
03:13 7.1 °C 5.7 °C 1027 hPa West 4.8 km/h 11.3 km/h 91 % 0 mm 0 W/m2
03:18 7.2 °C 5.8 °C 1027 hPa West 4.8 km/h 12.9 km/h 91 % 0 mm 0 W/m2
03:23 7.3 °C 5.8 °C 1027 hPa West 4.8 km/h 12.9 km/h 90 % 0 mm 0 W/m2
03:28 7.4 °C 5.9 °C 1027 hPa West 3.2 km/h 9.7 km/h 90 % 0 mm 0 W/m2
03:33 7.4 °C 5.9 °C 1027 hPa West 3.2 km/h 8 km/h 90 % 0 mm 0 W/m2
03:38 7.5 °C 5.9 °C 1027 hPa West 3.2 km/h 8 km/h 90 % 0 mm 0 W/m2
03:43 7.6 °C 6.1 °C 1027 hPa West 3.2 km/h 9.7 km/h 90 % 0 mm 0 W/m2
03:48 7.6 °C 5.9 °C 1027 hPa West 4.8 km/h 12.9 km/h 89 % 0 mm 0 W/m2
03:53 7.6 °C 5.9 °C 1027 hPa West 4.8 km/h 12.9 km/h 89 % 0 mm 0 W/m2
03:58 7.7 °C 6 °C 1027 hPa West 3.2 km/h 9.7 km/h 89 % 0 mm 0 W/m2
04:00 7.7 °C 6 °C 1027 hPa WNW 3.2 km/h 9.7 km/h 89 % 0 mm 0 W/m2
04:05 7.7 °C 6 °C 1027 hPa West 4.8 km/h 14.5 km/h 89 % 0 mm 0 W/m2
04:10 7.8 °C 6.1 °C 1027 hPa West 6.4 km/h 14.5 km/h 89 % 0 mm 0 W/m2
04:15 7.8 °C 5.9 °C 1026.6 hPa West 6.4 km/h 12.9 km/h 88 % 0 mm 0 W/m2
04:25 7.9 °C 6.1 °C 1026.6 hPa West 6.4 km/h 12.9 km/h 88 % 0 mm 0 W/m2
04:30 7.9 °C 6.1 °C 1026.6 hPa West 6.4 km/h 14.5 km/h 88 % 0 mm 0 W/m2
04:35 7.9 °C 6.1 °C 1026.6 hPa WNW 8 km/h 14.5 km/h 88 % 0 mm 0 W/m2
04:40 8 °C 5.9 °C 1026.6 hPa WNW 8 km/h 14.5 km/h 87 % 0 mm 0 W/m2
04:45 8 °C 5.9 °C 1026.6 hPa WNW 6.4 km/h 14.5 km/h 87 % 0 mm 0 W/m2
04:50 8 °C 5.9 °C 1026.6 hPa WNW 4.8 km/h 14.5 km/h 87 % 0 mm 0 W/m2
04:56 8.1 °C 6.1 °C 1026.6 hPa WNW 6.4 km/h 14.5 km/h 87 % 0 mm 0 W/m2
05:01 8.1 °C 6.1 °C 1026.6 hPa WNW 6.4 km/h 12.9 km/h 87 % 0 mm 0 W/m2
05:06 8.1 °C 6.1 °C 1026.6 hPa WNW 4.8 km/h 12.9 km/h 87 % 0 mm 0 W/m2
05:11 8.1 °C 6.1 °C 1026.6 hPa WNW 6.4 km/h 19.3 km/h 87 % 0 mm 0 W/m2
05:16 8.1 °C 6.1 °C 1026.6 hPa WNW 8 km/h 19.3 km/h 87 % 0 mm 0 W/m2
05:21 8.2 °C 6 °C 1026.6 hPa WNW 8 km/h 14.5 km/h 86 % 0 mm 0 W/m2
05:26 8.2 °C 6 °C 1026.6 hPa WNW 6.4 km/h 14.5 km/h 86 % 0 mm 0 W/m2
05:31 8.2 °C 6 °C 1026.6 hPa WNW 6.4 km/h 12.9 km/h 86 % 0 mm 0 W/m2
05:36 8.2 °C 6 °C 1026.6 hPa WNW 6.4 km/h 12.9 km/h 86 % 0 mm 0 W/m2
05:41 8.2 °C 6 °C 1026.6 hPa WNW 6.4 km/h 16.1 km/h 86 % 0 mm 0 W/m2
05:46 8.2 °C 6 °C 1026.6 hPa WNW 8 km/h 16.1 km/h 86 % 0 mm 0 W/m2
05:51 8.2 °C 6 °C 1026.6 hPa WNW 6.4 km/h 12.9 km/h 86 % 0 mm 0 W/m2
05:56 8.2 °C 6 °C 1026.6 hPa WNW 6.4 km/h 12.9 km/h 86 % 0 mm 0 W/m2
06:01 8.2 °C 6 °C 1026.6 hPa WNW 4.8 km/h 11.3 km/h 86 % 0 mm 0 W/m2
06:06 8.2 °C 6 °C 1026.6 hPa WNW 4.8 km/h 14.5 km/h 86 % 0 mm 0 W/m2
06:11 8.2 °C 6 °C 1026.6 hPa WNW 6.4 km/h 14.5 km/h 86 % 0 mm 0 W/m2
06:16 8.2 °C 6 °C 1026.6 hPa WNW 4.8 km/h 9.7 km/h 86 % 0 mm 0 W/m2
06:21 8.2 °C 6 °C 1026.6 hPa WNW 4.8 km/h 9.7 km/h 86 % 0 mm 0 W/m2
06:26 8.2 °C 6 °C 1026.6 hPa WNW 4.8 km/h 11.3 km/h 86 % 0 mm 0 W/m2
06:31 8.2 °C 6 °C 1026.6 hPa WNW 4.8 km/h 11.3 km/h 86 % 0 mm 0 W/m2
06:41 8.2 °C 6 °C 1026.6 hPa WNW 3.2 km/h 11.3 km/h 86 % 0 mm 7 W/m2
06:46 8.2 °C 6 °C 1026.6 hPa WNW 3.2 km/h 11.3 km/h 86 % 0 mm 9 W/m2
06:51 8.2 °C 6 °C 1026.6 hPa WNW 3.2 km/h 9.7 km/h 86 % 0 mm 11 W/m2
06:56 8.2 °C 6 °C 1026.6 hPa NW 3.2 km/h 12.9 km/h 86 % 0 mm 12 W/m2
07:01 8.2 °C 5.8 °C 1026.6 hPa WNW 4.8 km/h 12.9 km/h 85 % 0 mm 12 W/m2
07:07 8.3 °C 5.9 °C 1026.6 hPa WNW 4.8 km/h 11.3 km/h 85 % 0 mm 16 W/m2
07:12 8.3 °C 5.8 °C 1027 hPa NW 4.8 km/h 11.3 km/h 84 % 0 mm 19 W/m2
07:17 8.3 °C 5.8 °C 1027 hPa NW 4.8 km/h 12.9 km/h 84 % 0 mm 23 W/m2
07:22 8.4 °C 5.8 °C 1027 hPa NW 6.4 km/h 12.9 km/h 84 % 0 mm 23 W/m2
07:27 8.4 °C 5.8 °C 1026.6 hPa WNW 4.8 km/h 9.7 km/h 84 % 0 mm 28 W/m2
07:32 8.4 °C 5.7 °C 1027 hPa WNW 4.8 km/h 14.5 km/h 83 % 0 mm 32 W/m2
07:37 8.5 °C 5.8 °C 1027 hPa NW 6.4 km/h 14.5 km/h 83 % 0 mm 42 W/m2
07:42 8.5 °C 5.6 °C 1027 hPa NW 6.4 km/h 14.5 km/h 82 % 0 mm 32 W/m2
07:47 8.6 °C 5.7 °C 1027 hPa NW 6.4 km/h 14.5 km/h 82 % 0 mm 32 W/m2
07:52 8.6 °C 5.5 °C 1027 hPa NW 6.4 km/h 17.7 km/h 81 % 0 mm 35 W/m2
07:57 8.6 °C 5.3 °C 1027 hPa NW 8 km/h 17.7 km/h 80 % 0 mm 42 W/m2
08:02 8.6 °C 5.3 °C 1027 hPa NW 6.4 km/h 14.5 km/h 80 % 0 mm 54 W/m2
08:07 8.7 °C 5.4 °C 1027 hPa NW 6.4 km/h 14.5 km/h 80 % 0 mm 49 W/m2
08:12 8.7 °C 5.4 °C 1027 hPa NW 8 km/h 17.7 km/h 80 % 0 mm 51 W/m2
08:17 8.7 °C 5.3 °C 1027 hPa NW 9.7 km/h 17.7 km/h 79 % 0 mm 56 W/m2
08:22 8.8 °C 5.2 °C 1027 hPa NW 9.7 km/h 19.3 km/h 78 % 0 mm 79 W/m2
08:27 8.8 °C 5.2 °C 1027 hPa NW 9.7 km/h 19.3 km/h 78 % 0 mm 67 W/m2
08:32 8.8 °C 5.2 °C 1027 hPa NW 8 km/h 17.7 km/h 78 % 0 mm 63 W/m2
08:37 8.9 °C 5.3 °C 1027 hPa NW 4.8 km/h 12.9 km/h 78 % 0 mm 63 W/m2
08:42 8.9 °C 5.3 °C 1027 hPa WNW 4.8 km/h 11.3 km/h 78 % 0 mm 65 W/m2
08:47 9 °C 5.4 °C 1027 hPa WNW 4.8 km/h 12.9 km/h 78 % 0 mm 69 W/m2
08:52 9.1 °C 5.4 °C 1027 hPa WNW 4.8 km/h 12.9 km/h 78 % 0 mm 69 W/m2
09:02 9.1 °C 5.3 °C 1027 hPa WNW 6.4 km/h 14.5 km/h 77 % 0 mm 81 W/m2
09:07 9.1 °C 5.3 °C 1027 hPa WNW 8 km/h 16.1 km/h 77 % 0 mm 81 W/m2
09:12 9.1 °C 5.3 °C 1027 hPa WNW 9.7 km/h 20.9 km/h 77 % 0 mm 88 W/m2
09:17 9.1 °C 5.1 °C 1027 hPa WNW 11.3 km/h 20.9 km/h 76 % 0 mm 95 W/m2
09:22 9.1 °C 5.1 °C 1027 hPa WNW 11.3 km/h 19.3 km/h 76 % 0 mm 97 W/m2
09:32 9.1 °C 4.9 °C 1027 hPa WNW 9.7 km/h 19.3 km/h 75 % 0 mm 116 W/m2
09:37 9.1 °C 4.9 °C 1027 hPa NW 11.3 km/h 20.9 km/h 75 % 0 mm 116 W/m2
09:42 9.2 °C 5 °C 1027 hPa NW 9.7 km/h 20.9 km/h 75 % 0 mm 111 W/m2
09:47 9.2 °C 4.8 °C 1027 hPa NW 9.7 km/h 19.3 km/h 74 % 0 mm 116 W/m2
09:52 9.2 °C 4.8 °C 1027 hPa NW 9.7 km/h 19.3 km/h 74 % 0 mm 107 W/m2
09:57 9.2 °C 5 °C 1027 hPa NW 8 km/h 16.1 km/h 75 % 0 mm 100 W/m2
10:02 9.3 °C 5.1 °C 1027 hPa NW 8 km/h 17.7 km/h 75 % 0 mm 98 W/m2
10:03 9.3 °C 5.1 °C 1027 hPa NW 8 km/h 17.7 km/h 75 % 0 mm 100 W/m2
10:08 9.3 °C 5.1 °C 1027.3 hPa NW 8 km/h 17.7 km/h 75 % 0 mm 105 W/m2
10:13 9.3 °C 5.1 °C 1027.3 hPa NW 8 km/h 16.1 km/h 75 % 0 mm 102 W/m2
10:18 9.4 °C 5.2 °C 1027.3 hPa WNW 8 km/h 17.7 km/h 75 % 0 mm 105 W/m2
10:23 9.4 °C 5 °C 1027.3 hPa WNW 8 km/h 17.7 km/h 74 % 0 mm 113 W/m2
10:28 9.4 °C 5 °C 1027.3 hPa NW 9.7 km/h 16.1 km/h 74 % 0 mm 128 W/m2
10:33 9.4 °C 4.8 °C 1027.3 hPa NW 9.7 km/h 16.1 km/h 73 % 0 mm 127 W/m2
10:38 9.4 °C 4.8 °C 1027.3 hPa NW 9.7 km/h 16.1 km/h 73 % 0 mm 134 W/m2
10:43 9.4 °C 4.8 °C 1027.3 hPa NW 8 km/h 14.5 km/h 73 % 0 mm 134 W/m2
10:48 9.4 °C 4.8 °C 1027.3 hPa NW 8 km/h 17.7 km/h 73 % 0 mm 141 W/m2
10:53 9.5 °C 4.5 °C 1027.3 hPa NW 9.7 km/h 22.5 km/h 71 % 0 mm 151 W/m2
10:58 9.5 °C 4.7 °C 1027.3 hPa NW 9.7 km/h 22.5 km/h 72 % 0 mm 163 W/m2
11:03 9.6 °C 4.8 °C 1027.3 hPa NW 9.7 km/h 17.7 km/h 72 % 0 mm 165 W/m2
11:08 9.6 °C 4.8 °C 1027.3 hPa NW 8 km/h 17.7 km/h 72 % 0 mm 169 W/m2
11:13 9.7 °C 4.9 °C 1027.3 hPa WNW 8 km/h 16.1 km/h 72 % 0 mm 165 W/m2
11:18 9.8 °C 4.8 °C 1027.3 hPa NW 8 km/h 17.7 km/h 71 % 0 mm 155 W/m2
11:28 9.9 °C 4.9 °C 1027.3 hPa WNW 6.4 km/h 12.9 km/h 71 % 0 mm 165 W/m2
11:33 9.9 °C 4.9 °C 1027.3 hPa West 9.7 km/h 19.3 km/h 71 % 0 mm 179 W/m2
11:38 9.8 °C 4.6 °C 1027.3 hPa West 11.3 km/h 19.3 km/h 70 % 0 mm 174 W/m2
11:43 9.8 °C 4.8 °C 1027.3 hPa West 11.3 km/h 17.7 km/h 71 % 0 mm 204 W/m2
11:48 9.9 °C 4.7 °C 1027.3 hPa WNW 11.3 km/h 17.7 km/h 70 % 0 mm 185 W/m2
11:53 9.9 °C 4.7 °C 1027.3 hPa WNW 9.7 km/h 17.7 km/h 70 % 0 mm 186 W/m2
11:58 10 °C 5 °C 1027.3 hPa WNW 8 km/h 17.7 km/h 71 % 0 mm 176 W/m2
12:04 10.1 °C 5.1 °C 1027.3 hPa WNW 8 km/h 17.7 km/h 71 % 0 mm 199 W/m2
12:09 10.2 °C 4.9 °C 1027.3 hPa WNW 8 km/h 19.3 km/h 70 % 0 mm 192 W/m2
12:14 10.2 °C 4.9 °C 1027 hPa WNW 11.3 km/h 19.3 km/h 70 % 0 mm 202 W/m2
12:19 10.2 °C 4.9 °C 1027.3 hPa WNW 11.3 km/h 19.3 km/h 70 % 0 mm 213 W/m2
12:24 10.2 °C 4.9 °C 1027 hPa WNW 11.3 km/h 19.3 km/h 70 % 0 mm 230 W/m2
12:29 10.3 °C 4.8 °C 1027 hPa WNW 11.3 km/h 19.3 km/h 69 % 0 mm 229 W/m2
12:34 10.3 °C 4.8 °C 1027 hPa NW 11.3 km/h 22.5 km/h 69 % 0 mm 257 W/m2
12:39 10.3 °C 4.7 °C 1027 hPa WNW 11.3 km/h 22.5 km/h 68 % 0 mm 243 W/m2
12:44 10.4 °C 4.9 °C 1027 hPa WNW 11.3 km/h 20.9 km/h 69 % 0 mm 221 W/m2
12:49 10.4 °C 4.7 °C 1027 hPa WNW 11.3 km/h 20.9 km/h 68 % 0 mm 207 W/m2
12:54 10.4 °C 4.9 °C 1027 hPa WNW 11.3 km/h 19.3 km/h 69 % 0 mm 204 W/m2
12:59 10.4 °C 4.7 °C 1027 hPa WNW 11.3 km/h 17.7 km/h 68 % 0 mm 241 W/m2
13:04 10.4 °C 4.7 °C 1027 hPa WNW 11.3 km/h 17.7 km/h 68 % 0 mm 265 W/m2
13:09 10.6 °C 4.7 °C 1027 hPa WNW 9.7 km/h 17.7 km/h 67 % 0 mm 262 W/m2
13:14 10.6 °C 4.7 °C 1027 hPa WNW 9.7 km/h 17.7 km/h 67 % 0 mm 230 W/m2
13:19 10.7 °C 4.8 °C 1026.6 hPa NW 9.7 km/h 22.5 km/h 67 % 0 mm 272 W/m2
13:24 10.7 °C 4.8 °C 1026.6 hPa NW 11.3 km/h 22.5 km/h 67 % 0 mm 279 W/m2
13:29 10.7 °C 4.8 °C 1026.6 hPa NW 9.7 km/h 17.7 km/h 67 % 0 mm 294 W/m2
13:34 10.8 °C 4.9 °C 1026.6 hPa NW 6.4 km/h 16.1 km/h 67 % 0 mm 299 W/m2
13:40 11 °C 5.1 °C 1026.6 hPa NW 6.4 km/h 14.5 km/h 67 % 0 mm 316 W/m2
13:45 11.1 °C 5 °C 1026.6 hPa NW 9.7 km/h 19.3 km/h 66 % 0 mm 329 W/m2
13:50 11.2 °C 4.8 °C 1026.6 hPa WNW 11.3 km/h 19.3 km/h 65 % 0 mm 308 W/m2
13:55 11.3 °C 4.7 °C 1026.6 hPa WNW 11.3 km/h 17.7 km/h 64 % 0 mm 357 W/m2
14:00 11.3 °C 4.5 °C 1026.6 hPa WNW 11.3 km/h 19.3 km/h 63 % 0 mm 346 W/m2
14:10 11.5 °C 5.2 °C 1026.3 hPa NW 9.7 km/h 19.3 km/h 65 % 0 mm 466 W/m2
14:15 11.7 °C 5.1 °C 1026.3 hPa WNW 9.7 km/h 19.3 km/h 64 % 0 mm 540 W/m2
14:20 12.2 °C 5.3 °C 1026.3 hPa West 11.3 km/h 32.2 km/h 63 % 0 mm 1011 W/m2
14:25 12.7 °C 5.4 °C 1026.3 hPa West 12.9 km/h 32.2 km/h 61 % 0 mm 895 W/m2
14:30 12.9 °C 5.3 °C 1026.3 hPa West 11.3 km/h 20.9 km/h 60 % 0 mm 826 W/m2
14:35 13 °C 5.4 °C 1026.3 hPa WSW 11.3 km/h 20.9 km/h 60 % 0 mm 981 W/m2
14:40 13.2 °C 5.6 °C 1026.3 hPa WSW 11.3 km/h 20.9 km/h 60 % 0 mm 875 W/m2
14:51 13.6 °C 5.7 °C 1026.3 hPa West 11.3 km/h 17.7 km/h 59 % 0 mm 939 W/m2
14:56 13.9 °C 5.8 °C 1026 hPa West 11.3 km/h 17.7 km/h 58 % 0 mm 846 W/m2
15:01 13.9 °C 5.5 °C 1026 hPa West 12.9 km/h 20.9 km/h 57 % 0 mm 889 W/m2
15:04 13.9 °C 5.5 °C 1026 hPa West 12.9 km/h 20.9 km/h 57 % 0 mm 350 W/m2
15:09 13.9 °C 5.5 °C 1026 hPa WNW 9.7 km/h 17.7 km/h 57 % 0 mm 341 W/m2
15:14 13.9 °C 5.8 °C 1026 hPa NNW 8 km/h 20.9 km/h 58 % 0 mm 492 W/m2
15:19 13.8 °C 5.7 °C 1025.6 hPa NNW 9.7 km/h 20.9 km/h 58 % 0 mm 788 W/m2
15:24 13.7 °C 5.6 °C 1025.6 hPa NW 6.4 km/h 19.3 km/h 58 % 0 mm 802 W/m2
15:29 13.9 °C 5.5 °C 1025.6 hPa NW 8 km/h 19.3 km/h 57 % 0 mm 773 W/m2
15:34 14.1 °C 5.9 °C 1025.6 hPa WNW 9.7 km/h 19.3 km/h 58 % 0 mm 724 W/m2
15:39 14.3 °C 5.9 °C 1025.6 hPa WNW 9.7 km/h 19.3 km/h 57 % 0 mm 677 W/m2
15:49 14.1 °C 5.4 °C 1025.3 hPa WSW 11.3 km/h 19.3 km/h 56 % 0 mm 617 W/m2
15:54 13.9 °C 5.3 °C 1025.3 hPa WSW 11.3 km/h 19.3 km/h 56 % 0 mm 654 W/m2
15:59 14.1 °C 5.7 °C 1025.3 hPa West 9.7 km/h 19.3 km/h 57 % 0 mm 636 W/m2
16:04 14.3 °C 5.6 °C 1025.3 hPa NW 9.7 km/h 19.3 km/h 56 % 0 mm 603 W/m2
16:09 14.3 °C 5.9 °C 1025.3 hPa NW 9.7 km/h 17.7 km/h 57 % 0 mm 577 W/m2
16:14 14.2 °C 5.8 °C 1025.3 hPa NW 11.3 km/h 19.3 km/h 57 % 0 mm 571 W/m2
16:19 14.3 °C 5.6 °C 1025.3 hPa NW 11.3 km/h 19.3 km/h 56 % 0 mm 499 W/m2
16:24 14.3 °C 5.4 °C 1024.9 hPa WNW 11.3 km/h 19.3 km/h 55 % 0 mm 496 W/m2
16:29 14.1 °C 5.4 °C 1025.3 hPa WNW 9.7 km/h 17.7 km/h 56 % 0 mm 485 W/m2
16:34 14.1 °C 5.4 °C 1024.9 hPa WNW 6.4 km/h 17.7 km/h 56 % 0 mm 480 W/m2
16:39 14 °C 5.6 °C 1024.9 hPa NW 4.8 km/h 16.1 km/h 57 % 0 mm 448 W/m2
16:44 14 °C 5.6 °C 1024.9 hPa NW 8 km/h 16.1 km/h 57 % 0 mm 443 W/m2
16:45 14 °C 5.6 °C 1024.9 hPa NNW 8 km/h 16.1 km/h 57 % 0 mm 441 W/m2
16:50 14.1 °C 5.7 °C 1024.9 hPa NNW 6.4 km/h 16.1 km/h 57 % 0 mm 425 W/m2
16:55 14.1 °C 5.4 °C 1024.9 hPa WNW 6.4 km/h 17.7 km/h 56 % 0 mm 415 W/m2
17:00 14.2 °C 5.6 °C 1024.9 hPa WNW 9.7 km/h 17.7 km/h 56 % 0 mm 404 W/m2
17:05 14.3 °C 5.6 °C 1024.6 hPa NW 8 km/h 19.3 km/h 56 % 0 mm 388 W/m2
17:15 14.3 °C 5.6 °C 1024.6 hPa WNW 9.7 km/h 17.7 km/h 56 % 0 mm 357 W/m2
17:20 14.2 °C 5.6 °C 1024.6 hPa NW 9.7 km/h 17.7 km/h 56 % 0 mm 343 W/m2
17:25 14.2 °C 5.6 °C 1024.6 hPa WNW 8 km/h 16.1 km/h 56 % 0 mm 330 W/m2
17:30 14.3 °C 5.4 °C 1024.9 hPa WNW 8 km/h 17.7 km/h 55 % 0 mm 315 W/m2
17:35 14.3 °C 5.4 °C 1024.6 hPa WNW 9.7 km/h 17.7 km/h 55 % 0 mm 297 W/m2
17:40 14.2 °C 5.6 °C 1024.6 hPa WNW 8 km/h 17.7 km/h 56 % 0 mm 288 W/m2
17:45 14.1 °C 5.2 °C 1024.6 hPa WNW 8 km/h 16.1 km/h 55 % 0 mm 272 W/m2
17:50 14 °C 5.1 °C 1024.6 hPa WNW 8 km/h 16.1 km/h 55 % 0 mm 260 W/m2
17:55 13.9 °C 5.5 °C 1024.6 hPa WNW 6.4 km/h 12.9 km/h 57 % 0 mm 244 W/m2
18:00 13.9 °C 5.5 °C 1024.6 hPa NW 4.8 km/h 12.9 km/h 57 % 0 mm 232 W/m2
18:05 13.8 °C 5.4 °C 1024.9 hPa NNW 4.8 km/h 14.5 km/h 57 % 0 mm 218 W/m2
18:10 13.7 °C 5.6 °C 1024.9 hPa NNW 4.8 km/h 14.5 km/h 58 % 0 mm 204 W/m2
18:15 13.6 °C 5.7 °C 1024.6 hPa NW 4.8 km/h 11.3 km/h 59 % 0 mm 192 W/m2
18:20 13.7 °C 5.8 °C 1024.6 hPa WNW 6.4 km/h 16.1 km/h 59 % 0 mm 178 W/m2
18:25 13.6 °C 5.5 °C 1024.6 hPa NW 8 km/h 16.1 km/h 58 % 0 mm 163 W/m2
18:30 13.4 °C 5.6 °C 1024.6 hPa NNW 8 km/h 14.5 km/h 59 % 0 mm 151 W/m2
18:35 13.3 °C 5.2 °C 1024.6 hPa NNW 8 km/h 14.5 km/h 58 % 0 mm 139 W/m2
18:40 13.2 °C 5.3 °C 1024.6 hPa NNW 8 km/h 14.5 km/h 59 % 0 mm 127 W/m2
18:50 12.8 °C 5.2 °C 1024.9 hPa NW 8 km/h 14.5 km/h 60 % 0 mm 95 W/m2
18:55 12.7 °C 5.4 °C 1024.6 hPa NW 8 km/h 12.9 km/h 61 % 0 mm 84 W/m2
19:00 12.4 °C 5.1 °C 1024.6 hPa NNW 6.4 km/h 12.9 km/h 61 % 0 mm 72 W/m2
19:05 12.2 °C 5.1 °C 1024.9 hPa NNW 6.4 km/h 12.9 km/h 62 % 0 mm 60 W/m2
19:10 11.9 °C 5.1 °C 1024.9 hPa NNW 6.4 km/h 12.9 km/h 63 % 0 mm 49 W/m2
19:15 11.7 °C 4.9 °C 1024.9 hPa NNW 4.8 km/h 12.9 km/h 63 % 0 mm 40 W/m2
19:20 11.4 °C 4.8 °C 1024.9 hPa NNW 4.8 km/h 12.9 km/h 64 % 0 mm 33 W/m2
19:25 11.2 °C 4.8 °C 1024.9 hPa NNW 6.4 km/h 12.9 km/h 65 % 0 mm 25 W/m2
19:31 11 °C 4.9 °C 1024.9 hPa NNW 6.4 km/h 11.3 km/h 66 % 0 mm 19 W/m2
19:36 10.8 °C 4.7 °C 1024.9 hPa NNW 4.8 km/h 11.3 km/h 66 % 0 mm 14 W/m2
19:41 10.7 °C 4.8 °C 1024.9 hPa NNW 4.8 km/h 9.7 km/h 67 % 0 mm 11 W/m2
19:46 10.4 °C 4.7 °C 1024.9 hPa NNW 4.8 km/h 12.9 km/h 68 % 0 mm 9 W/m2
19:51 10.3 °C 4.7 °C 1024.9 hPa NNW 4.8 km/h 12.9 km/h 68 % 0 mm 7 W/m2
19:56 10.1 °C 4.7 °C 1024.9 hPa NNW 4.8 km/h 9.7 km/h 69 % 0 mm 5 W/m2
20:01 9.9 °C 4.5 °C 1024.9 hPa NW 4.8 km/h 9.7 km/h 69 % 0 mm 0 W/m2
20:07 9.7 °C 4.5 °C 1024.9 hPa NNW 1.6 km/h 8 km/h 70 % 0 mm 0 W/m2
20:12 9.6 °C 4.4 °C 1025.3 hPa NNW 1.6 km/h 6.4 km/h 70 % 0 mm 0 W/m2
20:17 9.4 °C 4.4 °C 1025.3 hPa Calm   3.2 km/h 71 % 0 mm 0 W/m2
20:22 9.3 °C 4.3 °C 1025.3 hPa Calm   1.6 km/h 71 % 0 mm 0 W/m2
20:27 9.1 °C 4.3 °C 1025.3 hPa Calm     72 % 0 mm 0 W/m2
20:32 8.9 °C 4.1 °C 1025.3 hPa Calm     72 % 0 mm 0 W/m2
20:38 8.8 °C 4.2 °C 1025.3 hPa NNW 1.6 km/h 1.6 km/h 73 % 0 mm 0 W/m2
20:43 8.5 °C 4.1 °C 1025.3 hPa NW 1.6 km/h 3.2 km/h 74 % 0 mm 0 W/m2
20:48 8.3 °C 3.9 °C 1025.3 hPa Calm   3.2 km/h 74 % 0 mm 0 W/m2
20:55 8.1 °C 3.9 °C 1025.3 hPa Calm   1.6 km/h 75 % 0 mm 0 W/m2
21:00 7.8 °C 4 °C 1025.3 hPa Calm   1.6 km/h 77 % 0 mm 0 W/m2
21:05 7.6 °C 3.8 °C 1025.3 hPa Calm     77 % 0 mm 0 W/m2
21:10 7.4 °C 3.8 °C 1025.3 hPa Calm     78 % 0 mm 0 W/m2
21:15 7.2 °C 3.8 °C 1025.3 hPa Calm     79 % 0 mm 0 W/m2
21:20 7 °C 3.6 °C 1025.3 hPa Calm     79 % 0 mm 0 W/m2
21:25 6.8 °C 3.6 °C 1025.3 hPa Calm     80 % 0 mm 0 W/m2
21:30 6.6 °C 3.4 °C 1025.3 hPa Calm     80 % 0 mm 0 W/m2
21:35 6.4 °C 3.4 °C 1025.3 hPa Calm     81 % 0 mm 0 W/m2
21:40 6.2 °C 3.3 °C 1025.3 hPa Calm     82 % 0 mm 0 W/m2
21:45 6.2 °C 3.5 °C 1025.3 hPa Calm     83 % 0 mm 0 W/m2
21:50 6.2 °C 3.5 °C 1025.3 hPa Calm     83 % 0 mm 0 W/m2
21:55 6.1 °C 3.6 °C 1025.3 hPa Calm     84 % 0 mm 0 W/m2
22:00 6.1 °C 3.6 °C 1025.6 hPa Calm     84 % 0 mm 0 W/m2
22:05 5.9 °C 3.2 °C 1025.6 hPa Calm     83 % 0 mm 0 W/m2
22:10 5.7 °C 3.1 °C 1025.3 hPa Calm     83 % 0 mm 0 W/m2
22:15 5.5 °C 2.8 °C 1025.3 hPa Calm   3.2 km/h 83 % 0 mm 0 W/m2
22:20 5.3 °C 2.8 °C 1025.3 hPa Calm   3.2 km/h 84 % 0 mm 0 W/m2
22:25 5.2 °C 2.9 °C 1025.3 hPa Calm   3.2 km/h 85 % 0 mm 0 W/m2
22:30 5.1 °C 2.8 °C 1025.6 hPa Calm   1.6 km/h 85 % 0 mm 0 W/m2
22:35 5 °C 2.8 °C 1025.6 hPa Calm     86 % 0 mm 0 W/m2
22:41 4.9 °C 2.8 °C 1025.3 hPa Calm     86 % 0 mm 0 W/m2
22:46 4.8 °C 2.7 °C 1025.3 hPa Calm     86 % 0 mm 0 W/m2
22:51 4.7 °C 2.6 °C 1025.3 hPa Calm   1.6 km/h 86 % 0 mm 0 W/m2
22:56 4.6 °C 2.6 °C 1025.3 hPa Calm   1.6 km/h 87 % 0 mm 0 W/m2
23:01 4.6 °C 2.6 °C 1025.3 hPa Calm   1.6 km/h 87 % 0 mm 0 W/m2
23:06 4.4 °C 2.4 °C 1025.3 hPa Calm   1.6 km/h 87 % 0 mm 0 W/m2
23:11 4.3 °C 2.3 °C 1025.3 hPa Calm     87 % 0 mm 0 W/m2
23:16 4.2 °C 2.2 °C 1025.3 hPa Calm     87 % 0 mm 0 W/m2
23:26 4 °C 2.2 °C 1025.3 hPa Calm   1.6 km/h 88 % 0 mm 0 W/m2
23:31 3.9 °C 2.1 °C 1025.3 hPa Calm   1.6 km/h 88 % 0 mm 0 W/m2
23:36 3.8 °C 2 °C 1025.3 hPa Calm   1.6 km/h 88 % 0 mm 0 W/m2
23:41 3.8 °C 2 °C 1025.3 hPa Calm   1.6 km/h 88 % 0 mm 0 W/m2
23:46 3.7 °C 1.9 °C 1025.3 hPa Calm     88 % 0 mm 0 W/m2
23:51 3.6 °C 1.8 °C 1025.3 hPa Calm     88 % 0 mm 0 W/m2
23:56 3.4 °C 1.6 °C 1025.3 hPa Calm     88 % 0 mm 0 W/m2
Delerius-Weather
Compliments of Weather Underground - 2.25 mb

Data updates at regular intervals.